createdAt,value
2022-09-08T00:02:12.300Z,17.65
2022-09-08T00:05:00.014Z,17.66
2022-09-08T00:07:48.797Z,17.60
2022-09-08T00:10:38.072Z,17.52
2022-09-08T00:13:28.587Z,17.69
2022-09-08T00:16:21.085Z,17.67
2022-09-08T00:19:09.243Z,17.79
2022-09-08T00:21:57.872Z,17.81
2022-09-08T00:24:45.806Z,17.94
2022-09-08T00:27:33.675Z,18.01
2022-09-08T00:30:21.724Z,18.01
2022-09-08T00:33:09.553Z,17.65
2022-09-08T00:35:58.042Z,17.52
2022-09-08T00:38:54.574Z,17.40
2022-09-08T00:41:42.943Z,17.32
2022-09-08T00:44:51.194Z,17.13
2022-09-08T00:47:48.732Z,17.16
2022-09-08T00:50:36.472Z,17.16
2022-09-08T00:53:24.183Z,17.20
2022-09-08T00:56:12.858Z,17.26
2022-09-08T00:59:02.741Z,17.28
2022-09-08T01:01:51.561Z,17.34
2022-09-08T01:04:39.592Z,17.26
2022-09-08T01:08:17.376Z,17.34
2022-09-08T01:11:40.845Z,17.26
2022-09-08T01:14:51.798Z,17.36
2022-09-08T01:17:39.632Z,17.23
2022-09-08T01:20:54.421Z,17.41
2022-09-08T01:24:00.482Z,17.43
2022-09-08T01:27:12.089Z,17.34
2022-09-08T01:30:04.943Z,17.44
2022-09-08T01:32:53.091Z,17.53
2022-09-08T01:35:41.474Z,17.62
2022-09-08T01:38:29.725Z,17.62
2022-09-08T01:41:17.879Z,17.67
2022-09-08T01:44:06.122Z,17.62
2022-09-08T01:46:53.907Z,17.60
2022-09-08T01:49:41.708Z,17.66
2022-09-08T01:52:29.480Z,17.73
2022-09-08T01:55:17.764Z,17.76
2022-09-08T01:58:05.860Z,17.78
2022-09-08T02:00:53.736Z,17.60
2022-09-08T02:03:42.300Z,17.79
2022-09-08T02:06:30.981Z,17.77
2022-09-08T02:09:18.727Z,17.73
2022-09-08T02:12:06.672Z,17.72
2022-09-08T02:14:55.418Z,17.66
2022-09-08T02:17:43.213Z,17.53
2022-09-08T02:20:31.010Z,17.51
2022-09-08T02:23:18.745Z,17.61
2022-09-08T02:26:07.665Z,17.74
2022-09-08T02:28:56.088Z,17.67
2022-09-08T02:31:43.816Z,17.73
2022-09-08T02:34:31.703Z,17.87
2022-09-08T02:37:20.215Z,17.89
2022-09-08T02:40:09.359Z,17.84
2022-09-08T02:42:57.485Z,17.94
2022-09-08T02:45:47.193Z,17.94
2022-09-08T02:48:35.504Z,17.85
2022-09-08T02:51:23.636Z,17.99
2022-09-08T02:54:11.376Z,17.88
2022-09-08T02:56:59.201Z,17.81
2022-09-08T02:59:46.973Z,17.65
2022-09-08T03:02:34.710Z,17.64
2022-09-08T03:05:22.468Z,17.51
2022-09-08T03:08:10.640Z,17.47
2022-09-08T03:10:58.704Z,17.33
2022-09-08T03:13:46.640Z,17.37
2022-09-08T03:16:34.739Z,17.32
2022-09-08T03:19:22.446Z,17.32
2022-09-08T03:22:10.577Z,17.24
2022-09-08T03:24:58.372Z,17.31
2022-09-08T03:27:46.401Z,17.27
2022-09-08T03:30:34.457Z,17.23
2022-09-08T03:33:22.722Z,17.17
2022-09-08T03:36:13.858Z,17.20
2022-09-08T03:39:03.023Z,17.34
2022-09-08T03:41:51.078Z,17.31
2022-09-08T03:44:38.806Z,17.39
2022-09-08T03:47:26.525Z,17.49
2022-09-08T03:50:17.582Z,17.44
2022-09-08T03:53:05.440Z,17.51
2022-09-08T03:55:53.337Z,17.50
2022-09-08T03:58:42.117Z,17.56
2022-09-08T04:01:29.926Z,17.47
2022-09-08T04:04:17.796Z,17.50
2022-09-08T04:07:05.622Z,17.52
2022-09-08T04:09:53.717Z,17.52
2022-09-08T04:12:41.488Z,17.38
2022-09-08T04:15:29.489Z,17.45
2022-09-08T04:18:17.373Z,17.44
2022-09-08T04:21:06.059Z,17.41
2022-09-08T04:23:54.451Z,17.49
2022-09-08T04:26:42.338Z,17.38
2022-09-08T04:29:30.083Z,17.46
2022-09-08T04:32:19.008Z,17.41
2022-09-08T04:35:08.197Z,17.48
2022-09-08T04:37:55.966Z,17.54
2022-09-08T04:40:43.808Z,17.53
2022-09-08T04:43:33.547Z,17.62
2022-09-08T04:46:22.001Z,17.57
2022-09-08T04:49:09.880Z,17.55
2022-09-08T04:51:57.632Z,17.37
2022-09-08T04:54:45.549Z,17.41
2022-09-08T04:57:33.321Z,17.46
2022-09-08T05:00:21.196Z,17.49
2022-09-08T05:03:08.883Z,17.47
2022-09-08T05:05:56.981Z,17.55
2022-09-08T05:08:51.153Z,17.55
2022-09-08T05:11:38.882Z,17.41
2022-09-08T05:14:26.570Z,17.44
2022-09-08T05:17:14.444Z,17.43
2022-09-08T05:20:02.836Z,17.39
2022-09-08T05:22:50.696Z,17.36
2022-09-08T05:25:38.585Z,17.35
2022-09-08T05:28:28.566Z,17.33
2022-09-08T05:31:20.626Z,17.29
2022-09-08T05:34:10.225Z,17.31
2022-09-08T05:36:58.313Z,17.26
2022-09-08T05:39:47.926Z,17.28
2022-09-08T05:42:35.753Z,17.33
2022-09-08T05:45:23.662Z,17.29
2022-09-08T05:48:11.681Z,17.24
2022-09-08T05:50:59.946Z,17.28
2022-09-08T05:53:49.165Z,17.26
2022-09-08T05:56:37.004Z,17.21
2022-09-08T05:59:24.885Z,17.30
2022-09-08T06:02:13.464Z,17.29
2022-09-08T06:05:01.578Z,17.22
2022-09-08T06:07:50.118Z,17.30
2022-09-08T06:10:38.765Z,17.25
2022-09-08T06:13:27.850Z,17.19
2022-09-08T06:16:16.275Z,17.23
2022-09-08T06:19:04.475Z,17.18
2022-09-08T06:21:52.305Z,17.20
2022-09-08T06:24:40.117Z,17.13
2022-09-08T06:27:42.824Z,17.30
2022-09-08T06:30:48.429Z,17.17
2022-09-08T06:33:42.783Z,17.14
2022-09-08T06:36:50.613Z,17.15
2022-09-08T06:39:45.819Z,17.08
2022-09-08T06:43:05.008Z,17.04
2022-09-08T06:45:57.105Z,16.92
2022-09-08T06:48:44.973Z,16.83
2022-09-08T06:52:02.142Z,16.98
2022-09-08T06:55:03.839Z,16.79
2022-09-08T06:58:25.880Z,16.94
2022-09-08T07:01:32.354Z,17.02
2022-09-08T07:04:48.078Z,17.04
2022-09-08T07:08:15.578Z,17.03
2022-09-08T07:11:37.253Z,17.12
2022-09-08T07:15:23.289Z,16.97
2022-09-08T07:18:31.495Z,17.00
2022-09-08T07:21:44.545Z,17.06
2022-09-08T07:24:38.436Z,16.87
2022-09-08T07:27:26.991Z,16.73
2022-09-08T07:30:18.293Z,16.79
2022-09-08T07:33:33.450Z,16.66
2022-09-08T07:36:46.520Z,16.78
2022-09-08T07:39:40.430Z,16.79
2022-09-08T07:42:32.350Z,16.85
2022-09-08T07:45:20.480Z,16.74
2022-09-08T07:48:29.776Z,16.80
2022-09-08T07:51:20.615Z,16.85
2022-09-08T07:54:34.532Z,16.81
2022-09-08T07:57:57.362Z,16.80
2022-09-08T08:01:12.755Z,16.65
2022-09-08T08:04:19.870Z,16.80
2022-09-08T08:07:17.932Z,16.77
2022-09-08T08:10:24.122Z,16.80
2022-09-08T08:13:17.586Z,16.84
2022-09-08T08:16:16.286Z,16.81
2022-09-08T08:19:20.795Z,17.02
2022-09-08T08:22:28.553Z,17.13
2022-09-08T08:25:37.804Z,17.29
2022-09-08T08:28:25.580Z,17.59
2022-09-08T08:31:37.693Z,17.91
2022-09-08T08:34:30.612Z,17.99
2022-09-08T08:37:26.742Z,18.10
2022-09-08T08:40:37.250Z,18.19
2022-09-08T08:44:22.333Z,18.64
2022-09-08T08:47:19.122Z,18.97
2022-09-08T08:50:58.786Z,19.51
2022-09-08T08:54:16.118Z,19.96
2022-09-08T08:57:34.483Z,21.05
2022-09-08T09:00:39.771Z,21.84
2022-09-08T09:04:15.385Z,22.47
2022-09-08T09:07:45.242Z,23.14
2022-09-08T09:10:55.698Z,23.36
2022-09-08T09:14:02.355Z,23.17
2022-09-08T09:17:12.319Z,23.43
2022-09-08T09:20:20.740Z,23.37
2022-09-08T09:23:41.238Z,24.05
2022-09-08T09:26:36.566Z,23.83
2022-09-08T09:29:28.052Z,23.76
2022-09-08T09:32:49.724Z,25.77
2022-09-08T09:36:17.731Z,28.03
2022-09-08T09:39:45.575Z,28.75
2022-09-08T09:42:57.253Z,29.69
2022-09-08T09:46:21.713Z,28.92
2022-09-08T09:49:58.605Z,27.47
2022-09-08T09:53:30.207Z,26.41
2022-09-08T09:56:43.848Z,24.66
2022-09-08T10:00:09.553Z,23.46
2022-09-08T10:03:35.561Z,22.72
2022-09-08T10:07:02.495Z,22.25
2022-09-08T10:10:30.714Z,21.85
2022-09-08T10:13:52.495Z,21.75
2022-09-08T10:17:31.010Z,21.50
2022-09-08T10:20:51.093Z,21.19
2022-09-08T10:24:15.917Z,21.12
2022-09-08T10:27:38.696Z,20.83
2022-09-08T10:30:47.608Z,21.04
2022-09-08T10:34:07.427Z,21.22
2022-09-08T10:37:11.009Z,21.25
2022-09-08T10:40:35.076Z,21.25
2022-09-08T10:43:28.384Z,21.46
2022-09-08T10:46:52.661Z,21.38
2022-09-08T10:50:11.492Z,21.44
2022-09-08T10:53:26.173Z,21.69
2022-09-08T10:56:15.137Z,21.69
2022-09-08T10:59:46.669Z,21.80
2022-09-08T11:02:32.640Z,21.68
2022-09-08T11:05:35.788Z,21.58
2022-09-08T11:08:51.548Z,21.68
2022-09-08T11:12:19.295Z,21.65
2022-09-08T11:15:26.047Z,21.48
2022-09-08T11:18:37.924Z,21.33
2022-09-08T11:21:32.892Z,21.28
2022-09-08T11:24:51.026Z,21.27
2022-09-08T11:27:47.683Z,21.23
2022-09-08T11:30:48.106Z,21.59
2022-09-08T11:34:23.391Z,21.71
2022-09-08T11:37:36.673Z,21.68
2022-09-08T11:40:56.958Z,21.49
2022-09-08T11:44:17.348Z,21.35
2022-09-08T11:47:17.053Z,21.35
2022-09-08T11:50:48.168Z,21.27
2022-09-08T11:54:33.276Z,21.12
2022-09-08T11:57:50.967Z,20.66
2022-09-08T12:01:16.425Z,20.92
2022-09-08T12:04:22.566Z,20.98
2022-09-08T12:07:37.036Z,21.08
2022-09-08T12:11:06.613Z,21.10
2022-09-08T12:13:57.022Z,21.25
2022-09-08T12:16:50.618Z,21.33
2022-09-08T12:20:23.742Z,21.50
2022-09-08T12:23:41.245Z,21.44
2022-09-08T12:27:15.845Z,21.46
2022-09-08T12:30:47.572Z,21.33
2022-09-08T12:33:55.365Z,21.09
2022-09-08T12:36:51.120Z,20.95
2022-09-08T12:40:32.381Z,21.14
2022-09-08T12:43:24.596Z,21.32
2022-09-08T12:46:24.119Z,21.47
2022-09-08T12:49:45.661Z,21.66
2022-09-08T12:52:47.606Z,21.48
2022-09-08T12:55:50.482Z,21.26
2022-09-08T12:59:10.851Z,21.30
2022-09-08T13:02:36.011Z,21.44
2022-09-08T13:05:35.967Z,21.34
2022-09-08T13:09:00.508Z,21.26
2022-09-08T13:12:04.677Z,21.18
2022-09-08T13:15:03.419Z,21.20
2022-09-08T13:18:09.053Z,21.22
2022-09-08T13:21:33.279Z,21.19
2022-09-08T13:24:46.226Z,21.20
2022-09-08T13:28:09.240Z,21.21
2022-09-08T13:32:03.978Z,21.30
2022-09-08T13:35:35.400Z,21.39
2022-09-08T13:38:58.582Z,21.38
2022-09-08T13:42:44.736Z,21.28
2022-09-08T13:45:49.702Z,21.34
2022-09-08T13:49:03.430Z,21.27
2022-09-08T13:52:24.930Z,21.32
2022-09-08T13:55:44.025Z,21.63
2022-09-08T13:58:51.034Z,21.74
2022-09-08T14:01:44.999Z,21.75
2022-09-08T14:04:43.644Z,21.89
2022-09-08T14:07:35.333Z,21.98
2022-09-08T14:10:41.980Z,22.13
2022-09-08T14:13:35.908Z,22.04
2022-09-08T14:16:31.566Z,21.95
2022-09-08T14:20:00.811Z,21.90
2022-09-08T14:23:23.554Z,21.87
2022-09-08T14:26:55.365Z,21.72
2022-09-08T14:30:22.863Z,21.53
2022-09-08T14:33:20.083Z,21.41
2022-09-08T14:36:53.865Z,21.39
2022-09-08T14:40:13.427Z,21.30
2022-09-08T14:43:34.694Z,21.51
2022-09-08T14:47:06.429Z,21.51
2022-09-08T14:50:18.135Z,21.79
2022-09-08T14:53:36.746Z,22.05
2022-09-08T14:56:38.198Z,22.17
2022-09-08T14:59:28.991Z,22.22
2022-09-08T15:02:38.641Z,22.03
2022-09-08T15:05:33.535Z,21.84
2022-09-08T15:08:32.281Z,21.60
2022-09-08T15:11:32.084Z,21.53
2022-09-08T15:14:30.280Z,21.32
2022-09-08T15:17:36.211Z,21.29
2022-09-08T15:20:33.258Z,21.27
2022-09-08T15:23:29.022Z,21.13
2022-09-08T15:26:31.515Z,21.09
2022-09-08T15:29:36.840Z,20.93
2022-09-08T15:32:45.986Z,21.14
2022-09-08T15:36:17.301Z,21.07
2022-09-08T15:39:33.611Z,21.31
2022-09-08T15:42:59.166Z,21.31
2022-09-08T15:46:13.094Z,21.19
2022-09-08T15:49:29.720Z,21.10
2022-09-08T15:52:50.646Z,20.89
2022-09-08T15:56:31.452Z,20.87
2022-09-08T16:00:13.632Z,20.69
2022-09-08T16:03:03.205Z,20.62
2022-09-08T16:05:56.859Z,20.59
2022-09-08T16:09:08.899Z,20.59
2022-09-08T16:12:07.598Z,20.58
2022-09-08T16:15:46.290Z,20.34
2022-09-08T16:18:55.158Z,20.39
2022-09-08T16:22:14.313Z,20.51
2022-09-08T16:25:06.377Z,20.49
2022-09-08T16:28:03.700Z,20.42
2022-09-08T16:31:27.012Z,20.53
2022-09-08T16:34:25.519Z,20.46
2022-09-08T16:37:28.307Z,20.41
2022-09-08T16:40:19.534Z,20.35
2022-09-08T16:43:20.055Z,20.27
2022-09-08T16:46:36.123Z,20.10
2022-09-08T16:49:40.891Z,20.05
2022-09-08T16:52:44.315Z,19.92
2022-09-08T16:55:57.714Z,19.85
2022-09-08T16:59:26.368Z,19.89
2022-09-08T17:02:40.913Z,19.71
2022-09-08T17:05:44.605Z,19.71
2022-09-08T17:08:32.369Z,19.66
2022-09-08T17:11:29.694Z,19.42
2022-09-08T17:14:17.428Z,19.36
2022-09-08T17:17:28.334Z,19.51
2022-09-08T17:20:33.230Z,19.51
2022-09-08T17:23:33.627Z,19.42
2022-09-08T17:27:04.041Z,19.38
2022-09-08T17:30:05.067Z,19.29
2022-09-08T17:33:18.371Z,19.23
2022-09-08T17:36:30.145Z,19.31
2022-09-08T17:39:43.403Z,19.21
2022-09-08T17:43:05.144Z,19.30
2022-09-08T17:46:49.085Z,19.26
2022-09-08T17:49:52.223Z,19.10
2022-09-08T17:52:48.838Z,19.06
2022-09-08T17:56:07.728Z,18.96
2022-09-08T17:59:13.519Z,18.79
2022-09-08T18:02:54.125Z,18.72
2022-09-08T18:05:48.848Z,18.50
2022-09-08T18:08:40.531Z,18.53
2022-09-08T18:11:44.531Z,18.23
2022-09-08T18:15:20.388Z,18.43
2022-09-08T18:18:25.266Z,18.45
2022-09-08T18:21:42.080Z,18.41
2022-09-08T18:24:35.366Z,18.32
2022-09-08T18:27:49.322Z,18.33
2022-09-08T18:30:43.420Z,18.29
2022-09-08T18:34:13.789Z,18.25
2022-09-08T18:37:20.389Z,18.29
2022-09-08T18:40:12.549Z,18.33
2022-09-08T18:43:17.541Z,18.32
2022-09-08T18:46:33.983Z,18.50
2022-09-08T18:49:38.553Z,18.52
2022-09-08T18:52:46.708Z,18.58
2022-09-08T18:55:42.997Z,18.50
2022-09-08T18:59:14.100Z,18.57
2022-09-08T19:02:20.242Z,18.57
2022-09-08T19:05:18.398Z,18.39
2022-09-08T19:08:49.265Z,18.43
2022-09-08T19:11:42.246Z,18.38
2022-09-08T19:14:48.665Z,18.35
2022-09-08T19:17:56.648Z,18.31
2022-09-08T19:21:02.388Z,18.26
2022-09-08T19:24:20.066Z,18.22
2022-09-08T19:27:28.040Z,18.29
2022-09-08T19:30:34.674Z,18.21
2022-09-08T19:34:05.206Z,18.19
2022-09-08T19:36:56.191Z,18.13
2022-09-08T19:40:16.822Z,18.11
2022-09-08T19:43:10.862Z,18.01
2022-09-08T19:46:22.971Z,17.87
2022-09-08T19:49:12.222Z,17.88
2022-09-08T19:52:01.360Z,17.85
2022-09-08T19:54:55.471Z,17.74
2022-09-08T19:57:54.821Z,17.74
2022-09-08T20:00:46.437Z,17.71
2022-09-08T20:03:35.054Z,17.68
2022-09-08T20:06:30.903Z,17.71
2022-09-08T20:09:30.101Z,17.67
2022-09-08T20:12:29.151Z,17.63
2022-09-08T20:15:20.665Z,17.68
2022-09-08T20:18:08.290Z,17.66
2022-09-08T20:21:13.763Z,17.57
2022-09-08T20:24:18.672Z,17.56
2022-09-08T20:27:15.069Z,17.48
2022-09-08T20:30:14.367Z,17.50
2022-09-08T20:33:20.842Z,17.47
2022-09-08T20:36:36.999Z,17.39
2022-09-08T20:39:54.416Z,17.31
2022-09-08T20:43:18.642Z,17.31
2022-09-08T20:55:08.948Z,17.16
2022-09-08T20:58:17.642Z,17.17
2022-09-08T21:01:20.584Z,17.17
2022-09-08T21:04:33.532Z,17.20
2022-09-08T21:07:45.860Z,17.21
2022-09-08T21:10:43.077Z,17.17
2022-09-08T21:13:36.563Z,17.20
2022-09-08T21:16:27.174Z,17.16
2022-09-08T21:19:23.344Z,17.21
2022-09-08T21:22:41.301Z,17.21
2022-09-08T21:25:43.721Z,17.17
2022-09-08T21:28:40.393Z,16.99
2022-09-08T21:31:59.293Z,17.14
2022-09-08T21:35:19.146Z,16.92
2022-09-08T21:38:37.952Z,16.69
2022-09-08T21:41:29.133Z,16.80
2022-09-08T21:44:35.630Z,16.78
2022-09-08T21:47:33.922Z,16.72
2022-09-08T21:50:29.175Z,16.57
2022-09-08T21:53:31.094Z,16.57
2022-09-08T21:56:32.763Z,16.52
2022-09-08T21:59:26.352Z,16.60
2022-09-08T22:02:25.856Z,16.70
2022-09-08T22:05:18.392Z,16.74
2022-09-08T22:08:21.035Z,16.76
2022-09-08T22:11:11.639Z,16.88
2022-09-08T22:14:14.783Z,16.88
2022-09-08T22:17:11.800Z,16.90
2022-09-08T22:20:17.161Z,16.89
2022-09-08T22:23:50.130Z,16.91
2022-09-08T22:26:54.028Z,16.93
2022-09-08T22:30:01.613Z,17.03
2022-09-08T22:33:00.247Z,17.02
2022-09-08T22:36:17.324Z,17.04
2022-09-08T22:39:36.324Z,17.02
2022-09-08T22:43:08.720Z,17.04
2022-09-08T22:46:14.618Z,17.00
2022-09-08T22:49:13.155Z,16.99
2022-09-08T22:52:13.071Z,17.03
2022-09-08T22:55:02.662Z,17.05
2022-09-08T22:58:11.474Z,17.06
2022-09-08T23:01:13.063Z,16.95
2022-09-08T23:04:09.582Z,17.03
2022-09-08T23:07:46.449Z,17.06
2022-09-08T23:10:34.572Z,16.90
2022-09-08T23:13:41.661Z,16.96
2022-09-08T23:16:54.244Z,17.00
2022-09-08T23:20:18.843Z,16.87
2022-09-08T23:23:25.465Z,16.82
2022-09-08T23:26:44.298Z,16.69
2022-09-08T23:30:00.554Z,16.62
2022-09-08T23:32:48.585Z,16.58
2022-09-08T23:35:42.733Z,16.59
2022-09-08T23:38:30.486Z,16.48
2022-09-08T23:41:20.374Z,16.43
2022-09-08T23:44:21.668Z,16.33
2022-09-08T23:47:31.109Z,16.33
2022-09-08T23:50:21.881Z,16.31
2022-09-08T23:53:15.535Z,16.35
2022-09-08T23:56:09.018Z,16.35
2022-09-08T23:58:57.281Z,16.30
